createdAt,value
2019-04-11T00:01:44.720Z,99.90
2019-04-11T00:04:12.159Z,99.90
2019-04-11T00:06:44.530Z,99.90
2019-04-11T00:09:18.765Z,99.90
2019-04-11T00:11:52.309Z,99.90
2019-04-11T00:14:24.659Z,99.90
2019-04-11T00:16:57.389Z,99.90
2019-04-11T00:19:30.186Z,99.90
2019-04-11T00:22:03.514Z,99.90
2019-04-11T00:24:36.679Z,99.90
2019-04-11T00:27:10.803Z,99.90
2019-04-11T00:29:43.371Z,99.90
2019-04-11T00:32:17.057Z,99.90
2019-04-11T00:34:51.084Z,99.90
2019-04-11T00:37:23.570Z,99.90
2019-04-11T00:39:56.283Z,99.90
2019-04-11T00:42:30.382Z,99.90
2019-04-11T00:45:03.364Z,99.90
2019-04-11T00:47:38.222Z,99.90
2019-04-11T00:50:11.037Z,99.90
2019-04-11T00:52:43.411Z,99.90
2019-04-11T00:55:17.488Z,99.90
2019-04-11T00:57:50.128Z,99.90
2019-04-11T01:00:22.931Z,99.90
2019-04-11T01:02:55.906Z,99.90
2019-04-11T01:05:29.712Z,99.90
2019-04-11T01:08:03.514Z,99.90
2019-04-11T01:10:36.218Z,99.90
2019-04-11T01:13:09.205Z,99.90
2019-04-11T01:15:43.071Z,99.90
2019-04-11T01:18:16.013Z,99.90
2019-04-11T01:20:48.700Z,99.90
2019-04-11T01:23:21.122Z,99.90
2019-04-11T01:25:54.929Z,99.90
2019-04-11T01:28:27.343Z,99.90
2019-04-11T01:31:01.686Z,99.90
2019-04-11T01:33:34.165Z,99.90
2019-04-11T01:36:07.083Z,99.90
2019-04-11T01:38:40.870Z,99.90
2019-04-11T01:41:14.099Z,99.90
2019-04-11T01:43:55.379Z,99.90
2019-04-11T01:46:20.680Z,99.90
2019-04-11T01:48:55.580Z,99.90
2019-04-11T01:51:28.015Z,99.90
2019-04-11T01:54:01.450Z,99.90
2019-04-11T01:56:33.880Z,99.90
2019-04-11T01:59:07.021Z,99.90
2019-04-11T02:01:41.077Z,99.90
2019-04-11T02:04:15.840Z,99.90
2019-04-11T02:06:48.343Z,99.90
2019-04-11T02:09:22.066Z,99.90
2019-04-11T02:11:56.075Z,99.90
2019-04-11T02:14:28.489Z,99.90
2019-04-11T02:17:01.219Z,99.90
2019-04-11T02:19:34.753Z,99.90
2019-04-11T02:22:08.925Z,99.90
2019-04-11T02:24:43.580Z,99.90
2019-04-11T02:27:18.946Z,99.90
2019-04-11T02:29:51.529Z,99.90
2019-04-11T02:32:25.491Z,99.90
2019-04-11T02:34:59.451Z,99.90
2019-04-11T02:37:34.345Z,99.90
2019-04-11T02:40:09.297Z,99.90
2019-04-11T02:42:43.198Z,99.90
2019-04-11T02:45:27.859Z,99.90
2019-04-11T02:47:53.216Z,99.90
2019-04-11T02:50:26.495Z,99.90
2019-04-11T02:52:58.816Z,99.90
2019-04-11T02:55:31.685Z,99.90
2019-04-11T02:58:06.251Z,99.90
2019-04-11T03:00:39.993Z,99.90
2019-04-11T03:03:13.011Z,99.90
2019-04-11T03:05:46.916Z,99.90
2019-04-11T03:08:21.729Z,99.90
2019-04-11T03:10:54.196Z,99.90
2019-04-11T03:13:29.288Z,99.90
2019-04-11T03:16:16.798Z,99.90
2019-04-11T03:18:54.885Z,99.90
2019-04-11T03:21:14.609Z,99.30
2019-04-11T03:23:44.242Z,98.60
2019-04-11T03:26:18.868Z,98.80
2019-04-11T03:28:55.632Z,98.80
2019-04-11T03:34:53.654Z,98.60
2019-04-11T03:37:13.711Z,98.20
2019-04-11T03:39:28.135Z,98.30
2019-04-11T03:41:59.713Z,96.80
2019-04-11T03:44:24.394Z,97.00
2019-04-11T03:47:08.350Z,95.90
2019-04-11T03:49:35.601Z,96.40
2019-04-11T03:52:01.191Z,96.60
2019-04-11T03:54:34.627Z,96.00
2019-04-11T03:57:09.669Z,97.00
2019-04-11T03:59:43.680Z,97.20
2019-04-11T04:02:16.982Z,95.50
2019-04-11T04:04:51.388Z,95.20
2019-04-11T04:07:25.124Z,94.80
2019-04-11T04:09:58.512Z,95.50
2019-04-11T04:12:31.477Z,95.30
2019-04-11T04:15:08.285Z,95.70
2019-04-11T04:17:43.209Z,94.80
2019-04-11T04:20:17.117Z,94.50
2019-04-11T04:22:52.403Z,94.30
2019-04-11T04:25:26.222Z,93.50
2019-04-11T04:27:59.029Z,94.00
2019-04-11T04:30:33.535Z,93.70
2019-04-11T04:33:07.135Z,93.30
2019-04-11T04:35:40.757Z,93.60
2019-04-11T04:38:15.594Z,94.10
2019-04-11T04:41:06.219Z,94.00
2019-04-11T04:43:26.926Z,93.50
2019-04-11T04:46:17.061Z,92.80
2019-04-11T04:48:34.389Z,92.50
2019-04-11T04:51:09.105Z,93.90
2019-04-11T04:53:41.074Z,92.80
2019-04-11T04:56:16.878Z,92.80
2019-04-11T04:58:50.629Z,93.80
2019-04-11T05:01:23.840Z,94.50
2019-04-11T05:03:58.126Z,95.50
2019-04-11T05:06:30.360Z,95.60
2019-04-11T05:09:04.176Z,96.00
2019-04-11T05:11:38.232Z,95.80
2019-04-11T05:14:12.523Z,95.90
2019-04-11T05:16:46.096Z,95.20
2019-04-11T05:19:19.098Z,95.40
2019-04-11T05:21:52.009Z,93.80
2019-04-11T05:24:24.738Z,93.40
2019-04-11T05:26:57.878Z,94.50
2019-04-11T05:29:30.477Z,93.00
2019-04-11T05:32:03.109Z,92.50
2019-04-11T05:34:35.719Z,91.90
2019-04-11T05:37:09.018Z,90.90
2019-04-11T05:39:42.355Z,91.60
2019-04-11T05:42:17.754Z,92.00
2019-04-11T05:44:49.681Z,91.00
2019-04-11T05:47:23.409Z,90.90
2019-04-11T05:49:57.285Z,91.40
2019-04-11T05:52:32.216Z,90.50
2019-04-11T05:55:09.588Z,88.60
2019-04-11T05:57:41.456Z,87.30
2019-04-11T06:00:16.116Z,86.40
2019-04-11T06:02:51.091Z,89.60
2019-04-11T06:05:31.241Z,88.60
2019-04-11T06:08:00.309Z,87.40
2019-04-11T06:10:34.028Z,86.00
2019-04-11T06:13:08.158Z,85.70
2019-04-11T06:15:43.928Z,84.70
2019-04-11T06:18:26.204Z,83.00
2019-04-11T06:20:53.541Z,84.60
2019-04-11T06:23:27.547Z,85.10
2019-04-11T06:26:02.215Z,85.10
2019-04-11T06:28:36.351Z,85.10
2019-04-11T06:31:10.027Z,81.70
2019-04-11T06:33:44.815Z,82.10
2019-04-11T06:36:18.499Z,85.00
2019-04-11T06:38:52.294Z,86.30
2019-04-11T06:41:26.306Z,84.20
2019-04-11T06:44:00.554Z,85.90
2019-04-11T06:46:38.931Z,85.50
2019-04-11T06:49:10.358Z,83.50
2019-04-11T06:51:44.237Z,82.40
2019-04-11T06:54:17.586Z,83.50
2019-04-11T06:56:52.088Z,84.80
2019-04-11T06:59:26.295Z,85.10
2019-04-11T07:02:08.814Z,86.50
2019-04-11T07:04:35.852Z,84.80
2019-04-11T07:07:11.052Z,86.00
2019-04-11T07:09:44.990Z,85.70
2019-04-11T07:12:19.025Z,85.90
2019-04-11T07:14:53.023Z,85.30
2019-04-11T07:17:27.542Z,83.10
2019-04-11T07:20:02.453Z,83.50
2019-04-11T07:22:36.849Z,81.40
2019-04-11T07:25:11.059Z,79.40
2019-04-11T07:27:45.056Z,79.10
2019-04-11T07:30:19.338Z,80.40
2019-04-11T07:32:53.286Z,80.80
2019-04-11T07:35:27.638Z,79.20
2019-04-11T07:38:01.062Z,78.40
2019-04-11T07:40:35.590Z,75.60
2019-04-11T07:43:13.329Z,73.90
2019-04-11T07:45:44.150Z,73.50
2019-04-11T07:48:17.841Z,74.20
2019-04-11T07:50:50.766Z,73.50
2019-04-11T07:53:26.242Z,73.80
2019-04-11T07:56:00.938Z,76.70
2019-04-11T07:58:35.252Z,77.20
2019-04-11T08:01:10.390Z,76.30
2019-04-11T08:03:44.664Z,74.90
2019-04-11T08:06:18.657Z,73.70
2019-04-11T08:08:52.691Z,73.70
2019-04-11T08:11:27.396Z,73.10
2019-04-11T08:14:02.221Z,71.10
2019-04-11T08:16:37.087Z,72.70
2019-04-11T08:19:11.089Z,72.20
2019-04-11T08:21:46.089Z,72.80
2019-04-11T08:24:20.489Z,70.70
2019-04-11T08:26:55.378Z,68.50
2019-04-11T08:29:30.411Z,68.00
2019-04-11T08:32:05.745Z,68.80
2019-04-11T08:34:39.647Z,68.80
2019-04-11T08:37:13.699Z,68.10
2019-04-11T08:39:47.151Z,67.50
2019-04-11T08:42:21.317Z,65.60
2019-04-11T08:44:54.261Z,66.80
2019-04-11T08:47:40.144Z,67.60
2019-04-11T08:50:02.117Z,68.40
2019-04-11T08:52:36.140Z,66.90
2019-04-11T08:55:10.455Z,67.40
2019-04-11T08:57:44.503Z,66.10
2019-04-11T09:00:19.030Z,65.60
2019-04-11T09:02:53.407Z,65.30
2019-04-11T09:05:29.036Z,66.00
2019-04-11T09:08:03.034Z,66.30
2019-04-11T09:10:37.157Z,65.90
2019-04-11T09:13:13.165Z,67.00
2019-04-11T09:15:49.571Z,66.90
2019-04-11T09:18:21.915Z,69.20
2019-04-11T09:20:55.989Z,68.10
2019-04-11T09:23:28.650Z,68.40
2019-04-11T09:26:03.554Z,68.60
2019-04-11T09:28:37.809Z,68.00
2019-04-11T09:31:13.991Z,66.30
2019-04-11T09:33:47.059Z,66.90
2019-04-11T09:36:21.938Z,68.20
2019-04-11T09:38:56.957Z,67.00
2019-04-11T09:41:30.850Z,64.50
2019-04-11T09:44:04.776Z,66.70
2019-04-11T09:46:38.703Z,65.60
2019-04-11T09:49:13.526Z,67.00
2019-04-11T09:51:47.788Z,67.00
2019-04-11T09:54:21.449Z,65.70
2019-04-11T09:56:55.953Z,67.00
2019-04-11T09:59:29.840Z,66.80
2019-04-11T10:02:03.528Z,67.60
2019-04-11T10:04:39.429Z,68.00
2019-04-11T10:07:13.430Z,67.80
2019-04-11T10:09:48.473Z,68.00
2019-04-11T10:12:22.416Z,68.50
2019-04-11T10:14:55.665Z,66.40
2019-04-11T10:17:29.670Z,68.10
2019-04-11T10:20:04.678Z,69.30
2019-04-11T10:22:38.609Z,69.70
2019-04-11T10:25:12.946Z,70.40
2019-04-11T10:27:47.011Z,70.90
2019-04-11T10:30:22.462Z,72.30
2019-04-11T10:32:57.321Z,72.30
2019-04-11T10:35:32.436Z,71.90
2019-04-11T10:38:06.805Z,72.60
2019-04-11T10:40:40.516Z,72.80
2019-04-11T10:43:13.310Z,72.40
2019-04-11T10:45:47.316Z,72.60
2019-04-11T10:48:32.601Z,73.90
2019-04-11T10:50:58.346Z,75.00
2019-04-11T10:53:31.211Z,74.30
2019-04-11T10:56:06.283Z,74.20
2019-04-11T10:58:40.657Z,74.60
2019-04-11T11:01:15.756Z,75.00
2019-04-11T11:03:49.420Z,77.20
2019-04-11T11:06:23.989Z,77.80
2019-04-11T11:08:57.722Z,78.60
2019-04-11T11:11:32.364Z,79.60
2019-04-11T11:14:06.686Z,78.90
2019-04-11T11:16:41.885Z,79.30
2019-04-11T11:19:33.710Z,80.70
2019-04-11T11:21:51.328Z,80.70
2019-04-11T11:24:25.961Z,82.10
2019-04-11T11:27:02.862Z,81.10
2019-04-11T11:29:35.036Z,81.20
2019-04-11T11:32:09.284Z,82.50
2019-04-11T11:34:44.433Z,83.00
2019-04-11T11:37:19.220Z,82.50
2019-04-11T11:39:52.887Z,84.10
2019-04-11T11:42:26.938Z,85.80
2019-04-11T11:45:02.406Z,86.90
2019-04-11T11:47:39.753Z,88.40
2019-04-11T11:50:18.228Z,87.80
2019-04-11T11:52:48.891Z,89.50
2019-04-11T11:55:22.742Z,85.90
2019-04-11T11:57:57.231Z,87.40
2019-04-11T12:00:30.717Z,88.50
2019-04-11T12:03:05.621Z,88.90
2019-04-11T12:05:45.603Z,89.60
2019-04-11T12:08:16.623Z,89.40
2019-04-11T12:10:51.330Z,89.60
2019-04-11T12:13:26.219Z,90.00
2019-04-11T12:16:00.088Z,90.20
2019-04-11T12:18:35.300Z,90.40
2019-04-11T12:21:09.435Z,90.90
2019-04-11T12:23:53.017Z,91.00
2019-04-11T12:26:18.297Z,91.40
2019-04-11T12:28:52.442Z,92.10
2019-04-11T12:31:26.124Z,91.60
2019-04-11T12:33:59.859Z,92.10
2019-04-11T12:36:34.759Z,92.80
2019-04-11T12:39:10.125Z,93.30
2019-04-11T12:41:45.578Z,93.40
2019-04-11T12:44:19.712Z,93.40
2019-04-11T12:46:53.383Z,93.20
2019-04-11T12:49:27.073Z,92.90
2019-04-11T12:52:00.780Z,92.80
2019-04-11T12:54:35.111Z,94.10
2019-04-11T12:57:08.705Z,93.60
2019-04-11T12:59:41.123Z,92.90
2019-04-11T13:02:14.993Z,93.00
2019-04-11T13:04:47.674Z,92.80
2019-04-11T13:07:21.473Z,92.40
2019-04-11T13:09:55.604Z,92.20
2019-04-11T13:12:29.789Z,92.90
2019-04-11T13:15:03.194Z,92.70
2019-04-11T13:17:37.673Z,92.60
2019-04-11T13:20:13.571Z,91.90
2019-04-11T13:22:46.062Z,92.30
2019-04-11T13:25:19.803Z,92.50
2019-04-11T13:27:53.468Z,92.70
2019-04-11T13:30:27.155Z,92.90
2019-04-11T13:33:00.308Z,92.90
2019-04-11T13:35:34.054Z,93.90
2019-04-11T13:38:08.452Z,93.60
2019-04-11T13:40:42.099Z,93.50
2019-04-11T13:43:17.008Z,93.80
2019-04-11T13:45:51.549Z,94.10
2019-04-11T13:48:25.557Z,94.50
2019-04-11T13:51:00.017Z,94.70
2019-04-11T13:53:34.110Z,94.80
2019-04-11T13:56:07.280Z,94.60
2019-04-11T13:58:41.315Z,95.10
2019-04-11T14:01:14.242Z,95.30
2019-04-11T14:03:47.713Z,95.70
2019-04-11T14:06:21.777Z,96.10
2019-04-11T14:08:55.888Z,96.20
2019-04-11T14:11:31.535Z,96.50
2019-04-11T14:14:05.397Z,97.00
2019-04-11T14:16:41.538Z,97.30
2019-04-11T14:19:14.802Z,98.10
2019-04-11T14:21:48.914Z,97.10
2019-04-11T14:24:22.791Z,97.20
2019-04-11T14:26:56.683Z,97.00
2019-04-11T14:29:30.449Z,97.20
2019-04-11T14:32:04.135Z,97.40
2019-04-11T14:34:38.147Z,97.60
2019-04-11T14:37:11.810Z,97.70
2019-04-11T14:39:46.168Z,97.50
2019-04-11T14:42:20.171Z,97.80
2019-04-11T14:44:54.393Z,98.20
2019-04-11T14:47:28.161Z,98.20
2019-04-11T14:50:02.214Z,98.30
2019-04-11T14:52:35.917Z,98.10
2019-04-11T14:55:08.843Z,98.00
2019-04-11T14:57:42.441Z,98.30
2019-04-11T15:00:18.361Z,98.30
2019-04-11T15:02:52.488Z,98.60
2019-04-11T15:05:26.920Z,98.50
2019-04-11T15:07:59.816Z,98.60
2019-04-11T15:10:33.814Z,98.70
2019-04-11T15:13:07.382Z,99.10
2019-04-11T15:15:41.391Z,98.90
2019-04-11T15:18:14.463Z,99.00
2019-04-11T15:20:54.980Z,99.10
2019-04-11T15:23:23.556Z,99.10
2019-04-11T15:25:57.932Z,99.10
2019-04-11T15:28:31.621Z,99.20
2019-04-11T15:31:05.213Z,99.40
2019-04-11T15:33:39.007Z,99.20
2019-04-11T15:36:13.556Z,99.30
2019-04-11T15:38:47.249Z,99.40
2019-04-11T15:41:19.994Z,99.50
2019-04-11T15:43:54.010Z,99.50
2019-04-11T15:46:28.433Z,99.60
2019-04-11T15:49:02.503Z,99.80
2019-04-11T15:51:36.171Z,99.80
2019-04-11T15:54:12.308Z,99.90
2019-04-11T15:56:46.766Z,99.90
2019-04-11T15:59:20.449Z,99.90
2019-04-11T16:01:53.912Z,99.90
2019-04-11T16:04:28.249Z,99.90
2019-04-11T16:07:02.697Z,99.90
2019-04-11T16:09:35.668Z,99.90
2019-04-11T16:12:09.342Z,99.90
2019-04-11T16:14:41.830Z,99.90
2019-04-11T16:17:15.621Z,99.90
2019-04-11T16:19:49.859Z,99.90
2019-04-11T16:22:24.876Z,99.90
2019-04-11T16:24:59.807Z,99.90
2019-04-11T16:27:34.313Z,99.90
2019-04-11T16:30:10.201Z,99.90
2019-04-11T16:32:44.685Z,99.90
2019-04-11T16:35:18.742Z,99.90
2019-04-11T16:37:53.401Z,99.90
2019-04-11T16:40:27.125Z,99.90
2019-04-11T16:43:01.570Z,99.90
2019-04-11T16:45:35.291Z,99.90
2019-04-11T16:48:08.005Z,99.90
2019-04-11T16:50:40.310Z,99.90
2019-04-11T16:53:13.022Z,99.90
2019-04-11T16:55:45.892Z,99.90
2019-04-11T16:58:19.588Z,99.90
2019-04-11T17:00:53.307Z,99.90
2019-04-11T17:03:25.826Z,99.90
2019-04-11T17:05:59.602Z,99.90
2019-04-11T17:08:33.269Z,99.90
2019-04-11T17:11:07.014Z,99.90
2019-04-11T17:13:39.605Z,99.90
2019-04-11T17:16:13.283Z,99.90
2019-04-11T17:18:45.674Z,99.90
2019-04-11T17:21:18.325Z,99.90
2019-04-11T17:23:50.658Z,99.90
2019-04-11T17:26:23.865Z,99.90
2019-04-11T17:28:56.430Z,99.90
2019-04-11T17:31:29.304Z,99.90
2019-04-11T17:34:02.430Z,99.90
2019-04-11T17:36:35.393Z,99.90
2019-04-11T17:39:09.071Z,99.90
2019-04-11T17:41:42.041Z,99.90
2019-04-11T17:44:15.356Z,99.90
2019-04-11T17:46:48.264Z,99.90
2019-04-11T17:49:20.682Z,99.90
2019-04-11T17:51:56.219Z,99.90
2019-04-11T17:54:26.997Z,99.90
2019-04-11T17:56:59.815Z,99.90
2019-04-11T17:59:32.582Z,99.90
2019-04-11T18:02:10.079Z,99.90
2019-04-11T18:04:43.971Z,99.90
2019-04-11T18:07:16.837Z,99.90
2019-04-11T18:09:47.886Z,99.90
2019-04-11T18:12:20.692Z,99.90
2019-04-11T18:14:52.908Z,99.90
2019-04-11T18:17:25.391Z,99.90
2019-04-11T18:19:57.667Z,99.90
2019-04-11T18:22:30.566Z,99.90
2019-04-11T18:25:02.965Z,99.90
2019-04-11T18:27:35.737Z,99.90
2019-04-11T18:30:10.642Z,99.90
2019-04-11T18:32:43.576Z,99.90
2019-04-11T18:35:16.277Z,99.90
2019-04-11T18:37:48.954Z,99.90
2019-04-11T18:40:21.488Z,99.90
2019-04-11T18:42:54.066Z,99.90
2019-04-11T18:45:26.474Z,99.90
2019-04-11T18:47:58.984Z,99.90
2019-04-11T18:50:32.734Z,99.90
2019-04-11T18:53:05.487Z,99.90
2019-04-11T18:55:37.868Z,99.90
2019-04-11T18:58:10.432Z,99.90
2019-04-11T19:00:43.154Z,99.90
2019-04-11T19:03:15.932Z,99.90
2019-04-11T19:05:48.244Z,99.90
2019-04-11T19:08:21.217Z,99.90
2019-04-11T19:10:53.702Z,99.90
2019-04-11T19:13:26.715Z,99.90
2019-04-11T19:15:59.850Z,99.90
2019-04-11T19:18:32.348Z,99.90
2019-04-11T19:21:04.768Z,99.90
2019-04-11T19:23:39.046Z,99.90
2019-04-11T19:26:14.521Z,99.90
2019-04-11T19:28:44.758Z,99.90
2019-04-11T19:31:17.180Z,99.90
2019-04-11T19:33:49.518Z,99.90
2019-04-11T19:36:21.830Z,99.90
2019-04-11T19:38:54.452Z,99.90
2019-04-11T19:41:26.958Z,99.90
2019-04-11T19:43:59.348Z,99.90
2019-04-11T19:46:31.899Z,99.90
2019-04-11T19:49:04.888Z,99.90
2019-04-11T19:51:38.586Z,99.90
2019-04-11T19:54:10.930Z,99.90
2019-04-11T19:56:44.490Z,99.90
2019-04-11T19:59:17.257Z,99.90
2019-04-11T20:01:50.779Z,99.90
2019-04-11T20:04:24.645Z,99.90
2019-04-11T20:06:58.306Z,99.90
2019-04-11T20:09:30.837Z,99.90
2019-04-11T20:12:03.318Z,99.90
2019-04-11T20:14:35.995Z,99.90
2019-04-11T20:17:09.232Z,99.90
2019-04-11T20:19:42.392Z,99.90
2019-04-11T20:22:14.742Z,99.90
2019-04-11T20:24:47.145Z,99.90
2019-04-11T20:27:20.377Z,99.90
2019-04-11T20:29:55.267Z,99.90
2019-04-11T20:32:27.479Z,99.90
2019-04-11T20:35:00.041Z,99.90
2019-04-11T20:37:39.057Z,99.90
2019-04-11T20:40:07.423Z,99.90
2019-04-11T20:42:39.623Z,99.90
2019-04-11T20:45:12.499Z,99.90
2019-04-11T20:47:44.914Z,99.90
2019-04-11T20:50:17.917Z,99.90
2019-04-11T20:52:50.799Z,99.90
2019-04-11T20:55:23.103Z,99.90
2019-04-11T20:57:55.880Z,99.90
2019-04-11T21:00:28.387Z,99.90
2019-04-11T21:03:01.337Z,99.90
2019-04-11T21:05:33.622Z,99.90
2019-04-11T21:08:06.153Z,99.90
2019-04-11T21:10:38.245Z,99.90
2019-04-11T21:13:10.979Z,99.90
2019-04-11T21:15:44.461Z,99.90
2019-04-11T21:18:17.010Z,99.90
2019-04-11T21:20:49.762Z,99.90
2019-04-11T21:23:24.686Z,99.90
2019-04-11T21:25:58.841Z,99.90
2019-04-11T21:28:30.289Z,99.90
2019-04-11T21:31:03.534Z,99.90
2019-04-11T21:33:35.996Z,99.90
2019-04-11T21:36:08.525Z,99.90
2019-04-11T21:38:41.035Z,99.90
2019-04-11T21:41:13.587Z,99.90
2019-04-11T21:43:45.904Z,99.90
2019-04-11T21:46:19.575Z,99.90
2019-04-11T21:48:51.883Z,99.90
2019-04-11T21:51:24.693Z,99.90
2019-04-11T21:53:58.004Z,99.90
2019-04-11T21:56:30.850Z,99.90
2019-04-11T21:59:03.226Z,99.90
2019-04-11T22:01:37.875Z,99.90
2019-04-11T22:04:11.027Z,99.90
2019-04-11T22:06:43.510Z,99.90
2019-04-11T22:09:15.838Z,99.90
2019-04-11T22:11:48.496Z,99.90
2019-04-11T22:14:21.080Z,99.90
2019-04-11T22:16:54.987Z,99.90
2019-04-11T22:19:27.410Z,99.90
2019-04-11T22:21:59.927Z,99.90
2019-04-11T22:24:32.648Z,99.90
2019-04-11T22:27:05.533Z,99.90
2019-04-11T22:29:37.975Z,99.90
2019-04-11T22:32:10.477Z,99.90
2019-04-11T22:34:44.682Z,99.90
2019-04-11T22:37:17.757Z,99.90
2019-04-11T22:39:50.335Z,99.90
2019-04-11T22:42:23.029Z,99.90
2019-04-11T22:44:56.103Z,99.90
2019-04-11T22:47:28.760Z,99.90
2019-04-11T22:50:01.272Z,99.90
2019-04-11T22:52:34.003Z,99.90
2019-04-11T22:55:11.006Z,99.90
2019-04-11T22:57:43.624Z,99.90
2019-04-11T23:00:16.440Z,99.90
2019-04-11T23:02:50.622Z,99.90
2019-04-11T23:05:23.204Z,99.90
2019-04-11T23:07:55.739Z,99.90
2019-04-11T23:10:28.152Z,99.90
2019-04-11T23:13:00.749Z,99.90
2019-04-11T23:15:33.869Z,99.90
2019-04-11T23:18:06.515Z,99.90
2019-04-11T23:20:38.709Z,99.90
2019-04-11T23:23:13.452Z,99.90
2019-04-11T23:25:45.343Z,99.90
2019-04-11T23:28:17.965Z,99.90
2019-04-11T23:30:50.564Z,99.90
2019-04-11T23:33:23.101Z,99.90
2019-04-11T23:35:55.501Z,99.90
2019-04-11T23:38:28.014Z,99.90
2019-04-11T23:41:00.449Z,99.90
2019-04-11T23:43:33.083Z,99.90
2019-04-11T23:46:05.505Z,99.90
2019-04-11T23:48:38.233Z,99.90
2019-04-11T23:51:11.099Z,99.90
2019-04-11T23:53:43.647Z,99.90
2019-04-11T23:56:16.855Z,99.90
2019-04-11T23:58:49.393Z,99.90
